sensor_id;sensor_type;location;lat;lon;timestamp;P1;durP1;ratioP1;P2;durP2;ratioP2
5452;SDS011;2749;53.576;9.822;2023-07-31T00:02:23;3.90;;;2.50;;
5452;SDS011;2749;53.576;9.822;2023-07-31T00:04:49;4.33;;;1.97;;
5452;SDS011;2749;53.576;9.822;2023-07-31T00:07:15;6.27;;;2.30;;
5452;SDS011;2749;53.576;9.822;2023-07-31T00:09:41;4.90;;;2.07;;
5452;SDS011;2749;53.576;9.822;2023-07-31T00:12:07;5.57;;;2.87;;
5452;SDS011;2749;53.576;9.822;2023-07-31T00:14:33;10.97;;;2.93;;
5452;SDS011;2749;53.576;9.822;2023-07-31T00:16:59;5.90;;;2.43;;
5452;SDS011;2749;53.576;9.822;2023-07-31T00:19:25;2.80;;;1.77;;
5452;SDS011;2749;53.576;9.822;2023-07-31T00:21:51;4.30;;;1.90;;
5452;SDS011;2749;53.576;9.822;2023-07-31T00:24:17;7.53;;;2.20;;
5452;SDS011;2749;53.576;9.822;2023-07-31T00:26:43;4.13;;;1.73;;
5452;SDS011;2749;53.576;9.822;2023-07-31T00:29:09;2.50;;;1.70;;
5452;SDS011;2749;53.576;9.822;2023-07-31T00:31:35;5.27;;;2.77;;
5452;SDS011;2749;53.576;9.822;2023-07-31T00:34:01;4.40;;;1.77;;
5452;SDS011;2749;53.576;9.822;2023-07-31T00:36:26;4.83;;;1.87;;
5452;SDS011;2749;53.576;9.822;2023-07-31T00:38:52;3.90;;;2.23;;
5452;SDS011;2749;53.576;9.822;2023-07-31T00:41:18;3.23;;;1.90;;
5452;SDS011;2749;53.576;9.822;2023-07-31T00:43:44;3.70;;;2.33;;
5452;SDS011;2749;53.576;9.822;2023-07-31T00:46:10;5.00;;;2.27;;
5452;SDS011;2749;53.576;9.822;2023-07-31T00:48:36;3.73;;;1.90;;
5452;SDS011;2749;53.576;9.822;2023-07-31T00:51:03;4.37;;;2.53;;
5452;SDS011;2749;53.576;9.822;2023-07-31T00:53:29;4.60;;;2.53;;
5452;SDS011;2749;53.576;9.822;2023-07-31T00:55:55;2.13;;;1.63;;
5452;SDS011;2749;53.576;9.822;2023-07-31T00:58:21;3.60;;;2.10;;
5452;SDS011;2749;53.576;9.822;2023-07-31T01:00:47;3.27;;;1.90;;
5452;SDS011;2749;53.576;9.822;2023-07-31T01:03:13;8.73;;;2.83;;
5452;SDS011;2749;53.576;9.822;2023-07-31T01:05:43;3.30;;;2.20;;
5452;SDS011;2749;53.576;9.822;2023-07-31T01:08:12;4.10;;;2.40;;
5452;SDS011;2749;53.576;9.822;2023-07-31T01:10:45;7.63;;;2.07;;
5452;SDS011;2749;53.576;9.822;2023-07-31T01:13:12;7.10;;;2.87;;
5452;SDS011;2749;53.576;9.822;2023-07-31T01:15:38;2.77;;;2.10;;
5452;SDS011;2749;53.576;9.822;2023-07-31T01:18:04;3.00;;;2.23;;
5452;SDS011;2749;53.576;9.822;2023-07-31T01:20:30;6.60;;;2.47;;
5452;SDS011;2749;53.576;9.822;2023-07-31T01:25:56;3.37;;;1.90;;
5452;SDS011;2749;53.576;9.822;2023-07-31T01:31:20;3.83;;;2.13;;
5452;SDS011;2749;53.576;9.822;2023-07-31T01:33:47;6.23;;;2.20;;
5452;SDS011;2749;53.576;9.822;2023-07-31T01:36:13;3.00;;;2.57;;
5452;SDS011;2749;53.576;9.822;2023-07-31T01:38:39;2.20;;;1.77;;
5452;SDS011;2749;53.576;9.822;2023-07-31T01:41:05;3.60;;;2.27;;
5452;SDS011;2749;53.576;9.822;2023-07-31T01:43:31;4.67;;;2.57;;
5452;SDS011;2749;53.576;9.822;2023-07-31T01:45:57;3.83;;;2.30;;
5452;SDS011;2749;53.576;9.822;2023-07-31T01:48:23;6.00;;;2.67;;
5452;SDS011;2749;53.576;9.822;2023-07-31T01:50:49;6.87;;;3.00;;
5452;SDS011;2749;53.576;9.822;2023-07-31T01:53:15;5.77;;;2.80;;
5452;SDS011;2749;53.576;9.822;2023-07-31T01:55:41;7.77;;;2.67;;
5452;SDS011;2749;53.576;9.822;2023-07-31T01:58:07;4.20;;;2.90;;
5452;SDS011;2749;53.576;9.822;2023-07-31T02:00:33;5.30;;;2.90;;
5452;SDS011;2749;53.576;9.822;2023-07-31T02:02:59;8.23;;;2.90;;
5452;SDS011;2749;53.576;9.822;2023-07-31T02:05:25;5.13;;;2.57;;
5452;SDS011;2749;53.576;9.822;2023-07-31T02:07:51;5.40;;;2.93;;
5452;SDS011;2749;53.576;9.822;2023-07-31T02:10:17;3.33;;;2.60;;
5452;SDS011;2749;53.576;9.822;2023-07-31T02:12:43;5.67;;;3.17;;
5452;SDS011;2749;53.576;9.822;2023-07-31T02:15:09;7.40;;;2.60;;
5452;SDS011;2749;53.576;9.822;2023-07-31T02:17:35;7.63;;;2.73;;
5452;SDS011;2749;53.576;9.822;2023-07-31T02:20:01;3.13;;;2.83;;
5452;SDS011;2749;53.576;9.822;2023-07-31T02:22:27;6.60;;;2.90;;
5452;SDS011;2749;53.576;9.822;2023-07-31T02:24:53;5.80;;;2.97;;
5452;SDS011;2749;53.576;9.822;2023-07-31T02:27:19;6.50;;;3.30;;
5452;SDS011;2749;53.576;9.822;2023-07-31T02:29:49;5.30;;;2.60;;
5452;SDS011;2749;53.576;9.822;2023-07-31T02:32:14;4.00;;;2.67;;
5452;SDS011;2749;53.576;9.822;2023-07-31T02:34:40;5.37;;;2.80;;
5452;SDS011;2749;53.576;9.822;2023-07-31T02:37:06;6.77;;;3.40;;
5452;SDS011;2749;53.576;9.822;2023-07-31T02:39:32;7.60;;;3.37;;
5452;SDS011;2749;53.576;9.822;2023-07-31T02:41:59;4.17;;;2.83;;
5452;SDS011;2749;53.576;9.822;2023-07-31T02:44:25;5.27;;;3.03;;
5452;SDS011;2749;53.576;9.822;2023-07-31T02:46:51;6.33;;;4.23;;
5452;SDS011;2749;53.576;9.822;2023-07-31T02:49:17;5.73;;;2.90;;
5452;SDS011;2749;53.576;9.822;2023-07-31T02:51:43;5.10;;;2.83;;
5452;SDS011;2749;53.576;9.822;2023-07-31T02:54:09;4.30;;;3.07;;
5452;SDS011;2749;53.576;9.822;2023-07-31T02:56:35;7.20;;;3.80;;
5452;SDS011;2749;53.576;9.822;2023-07-31T02:59:01;5.77;;;3.30;;
5452;SDS011;2749;53.576;9.822;2023-07-31T03:01:27;7.23;;;2.90;;
5452;SDS011;2749;53.576;9.822;2023-07-31T03:03:53;6.20;;;3.40;;
5452;SDS011;2749;53.576;9.822;2023-07-31T03:06:19;6.30;;;2.70;;
5452;SDS011;2749;53.576;9.822;2023-07-31T03:08:45;3.73;;;2.70;;
5452;SDS011;2749;53.576;9.822;2023-07-31T03:11:11;5.07;;;3.57;;
5452;SDS011;2749;53.576;9.822;2023-07-31T03:13:37;4.20;;;2.90;;
5452;SDS011;2749;53.576;9.822;2023-07-31T03:16:03;4.77;;;3.00;;
5452;SDS011;2749;53.576;9.822;2023-07-31T03:18:29;9.57;;;2.60;;
5452;SDS011;2749;53.576;9.822;2023-07-31T03:20:55;4.87;;;3.20;;
5452;SDS011;2749;53.576;9.822;2023-07-31T03:23:20;4.53;;;2.93;;
5452;SDS011;2749;53.576;9.822;2023-07-31T03:25:56;4.33;;;2.17;;
5452;SDS011;2749;53.576;9.822;2023-07-31T03:28:22;5.60;;;2.73;;
5452;SDS011;2749;53.576;9.822;2023-07-31T03:30:48;3.10;;;2.80;;
5452;SDS011;2749;53.576;9.822;2023-07-31T03:33:14;3.30;;;2.90;;
5452;SDS011;2749;53.576;9.822;2023-07-31T03:35:40;7.60;;;3.37;;
5452;SDS011;2749;53.576;9.822;2023-07-31T03:38:06;3.73;;;3.43;;
5452;SDS011;2749;53.576;9.822;2023-07-31T03:40:32;4.70;;;3.17;;
5452;SDS011;2749;53.576;9.822;2023-07-31T03:42:57;5.50;;;3.20;;
5452;SDS011;2749;53.576;9.822;2023-07-31T03:45:23;6.00;;;3.43;;
5452;SDS011;2749;53.576;9.822;2023-07-31T03:47:49;3.40;;;3.10;;
5452;SDS011;2749;53.576;9.822;2023-07-31T03:50:16;3.20;;;2.83;;
5452;SDS011;2749;53.576;9.822;2023-07-31T03:52:41;4.53;;;2.80;;
5452;SDS011;2749;53.576;9.822;2023-07-31T03:55:07;5.10;;;2.90;;
5452;SDS011;2749;53.576;9.822;2023-07-31T03:57:33;6.33;;;3.70;;
5452;SDS011;2749;53.576;9.822;2023-07-31T03:59:59;5.63;;;3.57;;
5452;SDS011;2749;53.576;9.822;2023-07-31T04:02:25;4.13;;;2.80;;
5452;SDS011;2749;53.576;9.822;2023-07-31T04:04:51;4.93;;;3.00;;
5452;SDS011;2749;53.576;9.822;2023-07-31T04:07:17;6.70;;;3.20;;
5452;SDS011;2749;53.576;9.822;2023-07-31T04:09:43;4.50;;;2.30;;
5452;SDS011;2749;53.576;9.822;2023-07-31T04:12:09;3.03;;;2.57;;
5452;SDS011;2749;53.576;9.822;2023-07-31T04:14:35;6.30;;;3.10;;
5452;SDS011;2749;53.576;9.822;2023-07-31T04:17:01;2.80;;;2.47;;
5452;SDS011;2749;53.576;9.822;2023-07-31T04:19:27;6.00;;;2.90;;
5452;SDS011;2749;53.576;9.822;2023-07-31T04:21:53;4.83;;;3.07;;
5452;SDS011;2749;53.576;9.822;2023-07-31T04:24:19;4.20;;;2.80;;
5452;SDS011;2749;53.576;9.822;2023-07-31T04:26:49;3.50;;;3.03;;
5452;SDS011;2749;53.576;9.822;2023-07-31T04:29:15;5.43;;;2.37;;
5452;SDS011;2749;53.576;9.822;2023-07-31T04:31:41;3.37;;;2.57;;
5452;SDS011;2749;53.576;9.822;2023-07-31T04:34:07;4.53;;;2.40;;
5452;SDS011;2749;53.576;9.822;2023-07-31T04:36:33;5.53;;;3.97;;
5452;SDS011;2749;53.576;9.822;2023-07-31T04:38:59;3.93;;;2.80;;
5452;SDS011;2749;53.576;9.822;2023-07-31T04:41:25;4.27;;;2.63;;
5452;SDS011;2749;53.576;9.822;2023-07-31T04:43:51;3.47;;;2.70;;
5452;SDS011;2749;53.576;9.822;2023-07-31T04:46:17;3.40;;;2.40;;
5452;SDS011;2749;53.576;9.822;2023-07-31T04:48:43;5.20;;;3.27;;
5452;SDS011;2749;53.576;9.822;2023-07-31T04:51:09;3.27;;;2.97;;
5452;SDS011;2749;53.576;9.822;2023-07-31T04:53:35;4.33;;;2.77;;
5452;SDS011;2749;53.576;9.822;2023-07-31T04:56:01;4.93;;;2.43;;
5452;SDS011;2749;53.576;9.822;2023-07-31T04:58:27;3.90;;;3.30;;
5452;SDS011;2749;53.576;9.822;2023-07-31T05:00:53;2.80;;;2.60;;
5452;SDS011;2749;53.576;9.822;2023-07-31T05:03:19;4.70;;;2.90;;
5452;SDS011;2749;53.576;9.822;2023-07-31T05:05:45;3.80;;;2.93;;
5452;SDS011;2749;53.576;9.822;2023-07-31T05:08:11;5.50;;;2.70;;
5452;SDS011;2749;53.576;9.822;2023-07-31T05:10:37;3.70;;;2.80;;
5452;SDS011;2749;53.576;9.822;2023-07-31T05:13:03;3.10;;;2.70;;
5452;SDS011;2749;53.576;9.822;2023-07-31T05:15:29;3.30;;;2.30;;
5452;SDS011;2749;53.576;9.822;2023-07-31T05:17:55;2.67;;;2.47;;
5452;SDS011;2749;53.576;9.822;2023-07-31T05:20:21;4.03;;;2.77;;
5452;SDS011;2749;53.576;9.822;2023-07-31T05:22:47;4.10;;;2.20;;
5452;SDS011;2749;53.576;9.822;2023-07-31T05:25:13;3.20;;;2.37;;
5452;SDS011;2749;53.576;9.822;2023-07-31T05:27:39;7.13;;;2.77;;
5452;SDS011;2749;53.576;9.822;2023-07-31T05:30:05;2.57;;;2.37;;
5452;SDS011;2749;53.576;9.822;2023-07-31T05:32:31;2.23;;;1.93;;
5452;SDS011;2749;53.576;9.822;2023-07-31T05:34:57;3.57;;;2.37;;
5452;SDS011;2749;53.576;9.822;2023-07-31T05:37:23;3.27;;;2.67;;
5452;SDS011;2749;53.576;9.822;2023-07-31T05:39:49;2.60;;;2.40;;
5452;SDS011;2749;53.576;9.822;2023-07-31T05:42:16;3.27;;;2.97;;
5452;SDS011;2749;53.576;9.822;2023-07-31T05:44:42;3.63;;;3.33;;
5452;SDS011;2749;53.576;9.822;2023-07-31T05:47:08;3.47;;;3.17;;
5452;SDS011;2749;53.576;9.822;2023-07-31T05:49:34;2.80;;;2.60;;
5452;SDS011;2749;53.576;9.822;2023-07-31T05:52:00;2.63;;;2.43;;
5452;SDS011;2749;53.576;9.822;2023-07-31T05:54:26;4.43;;;2.43;;
5452;SDS011;2749;53.576;9.822;2023-07-31T05:56:52;3.63;;;2.57;;
5452;SDS011;2749;53.576;9.822;2023-07-31T05:59:18;4.30;;;3.00;;
5452;SDS011;2749;53.576;9.822;2023-07-31T06:01:44;3.00;;;2.70;;
5452;SDS011;2749;53.576;9.822;2023-07-31T06:04:10;2.83;;;2.60;;
5452;SDS011;2749;53.576;9.822;2023-07-31T06:06:36;4.67;;;2.50;;
5452;SDS011;2749;53.576;9.822;2023-07-31T06:09:02;3.10;;;2.80;;
5452;SDS011;2749;53.576;9.822;2023-07-31T06:11:28;3.10;;;2.53;;
5452;SDS011;2749;53.576;9.822;2023-07-31T06:13:54;3.50;;;3.20;;
5452;SDS011;2749;53.576;9.822;2023-07-31T06:16:20;5.10;;;2.93;;
5452;SDS011;2749;53.576;9.822;2023-07-31T06:18:46;2.80;;;2.60;;
5452;SDS011;2749;53.576;9.822;2023-07-31T06:21:12;2.70;;;2.50;;
5452;SDS011;2749;53.576;9.822;2023-07-31T06:23:38;3.20;;;2.90;;
5452;SDS011;2749;53.576;9.822;2023-07-31T06:26:04;2.67;;;2.47;;
5452;SDS011;2749;53.576;9.822;2023-07-31T06:28:31;2.63;;;2.43;;
5452;SDS011;2749;53.576;9.822;2023-07-31T06:30:57;3.50;;;2.20;;
5452;SDS011;2749;53.576;9.822;2023-07-31T06:33:23;4.07;;;2.80;;
5452;SDS011;2749;53.576;9.822;2023-07-31T06:35:49;2.53;;;2.33;;
5452;SDS011;2749;53.576;9.822;2023-07-31T06:38:15;2.70;;;2.50;;
5452;SDS011;2749;53.576;9.822;2023-07-31T06:40:41;2.47;;;2.27;;
5452;SDS011;2749;53.576;9.822;2023-07-31T06:43:07;2.80;;;2.60;;
5452;SDS011;2749;53.576;9.822;2023-07-31T06:45:34;2.90;;;2.60;;
5452;SDS011;2749;53.576;9.822;2023-07-31T06:48:00;3.80;;;2.90;;
5452;SDS011;2749;53.576;9.822;2023-07-31T06:50:27;2.80;;;2.57;;
5452;SDS011;2749;53.576;9.822;2023-07-31T06:52:52;3.70;;;3.40;;
5452;SDS011;2749;53.576;9.822;2023-07-31T06:55:19;3.20;;;2.87;;
5452;SDS011;2749;53.576;9.822;2023-07-31T06:57:52;3.30;;;3.00;;
5452;SDS011;2749;53.576;9.822;2023-07-31T07:00:18;2.90;;;2.63;;
5452;SDS011;2749;53.576;9.822;2023-07-31T07:02:45;5.43;;;2.67;;
5452;SDS011;2749;53.576;9.822;2023-07-31T07:05:14;3.33;;;3.03;;
5452;SDS011;2749;53.576;9.822;2023-07-31T07:07:40;3.80;;;3.50;;
5452;SDS011;2749;53.576;9.822;2023-07-31T07:10:06;3.57;;;3.37;;
5452;SDS011;2749;53.576;9.822;2023-07-31T07:12:32;3.17;;;2.90;;
5452;SDS011;2749;53.576;9.822;2023-07-31T07:14:59;2.70;;;2.43;;
5452;SDS011;2749;53.576;9.822;2023-07-31T07:17:25;2.33;;;2.20;;
5452;SDS011;2749;53.576;9.822;2023-07-31T07:19:51;4.70;;;2.90;;
5452;SDS011;2749;53.576;9.822;2023-07-31T07:22:18;3.43;;;3.23;;
5452;SDS011;2749;53.576;9.822;2023-07-31T07:24:44;2.77;;;2.10;;
5452;SDS011;2749;53.576;9.822;2023-07-31T07:27:10;3.10;;;2.90;;
5452;SDS011;2749;53.576;9.822;2023-07-31T07:29:37;2.20;;;2.00;;
5452;SDS011;2749;53.576;9.822;2023-07-31T07:32:03;3.07;;;2.87;;
5452;SDS011;2749;53.576;9.822;2023-07-31T07:34:29;2.70;;;2.50;;
5452;SDS011;2749;53.576;9.822;2023-07-31T07:36:55;3.97;;;3.20;;
5452;SDS011;2749;53.576;9.822;2023-07-31T07:39:21;2.80;;;2.57;;
5452;SDS011;2749;53.576;9.822;2023-07-31T07:41:47;3.47;;;3.17;;
5452;SDS011;2749;53.576;9.822;2023-07-31T07:44:14;2.57;;;2.37;;
5452;SDS011;2749;53.576;9.822;2023-07-31T07:46:40;2.70;;;2.50;;
5452;SDS011;2749;53.576;9.822;2023-07-31T07:49:06;3.27;;;3.07;;
5452;SDS011;2749;53.576;9.822;2023-07-31T07:51:32;2.90;;;2.33;;
5452;SDS011;2749;53.576;9.822;2023-07-31T07:53:58;2.57;;;2.37;;
5452;SDS011;2749;53.576;9.822;2023-07-31T07:56:27;3.60;;;2.23;;
5452;SDS011;2749;53.576;9.822;2023-07-31T07:58:53;2.83;;;2.40;;
5452;SDS011;2749;53.576;9.822;2023-07-31T08:01:20;2.17;;;2.07;;
5452;SDS011;2749;53.576;9.822;2023-07-31T08:03:49;2.23;;;2.03;;
5452;SDS011;2749;53.576;9.822;2023-07-31T08:06:15;2.70;;;2.50;;
5452;SDS011;2749;53.576;9.822;2023-07-31T08:08:41;2.67;;;2.47;;
5452;SDS011;2749;53.576;9.822;2023-07-31T08:11:07;2.33;;;2.13;;
5452;SDS011;2749;53.576;9.822;2023-07-31T08:13:33;2.03;;;1.90;;
5452;SDS011;2749;53.576;9.822;2023-07-31T08:16:01;3.77;;;2.80;;
5452;SDS011;2749;53.576;9.822;2023-07-31T08:18:27;3.33;;;2.73;;
5452;SDS011;2749;53.576;9.822;2023-07-31T08:20:53;2.57;;;2.37;;
5452;SDS011;2749;53.576;9.822;2023-07-31T08:23:19;2.37;;;2.27;;
5452;SDS011;2749;53.576;9.822;2023-07-31T08:25:45;2.33;;;2.13;;
5452;SDS011;2749;53.576;9.822;2023-07-31T08:28:11;2.23;;;2.03;;
5452;SDS011;2749;53.576;9.822;2023-07-31T08:30:37;2.67;;;2.47;;
5452;SDS011;2749;53.576;9.822;2023-07-31T08:33:03;2.90;;;2.10;;
5452;SDS011;2749;53.576;9.822;2023-07-31T08:35:29;2.73;;;2.10;;
5452;SDS011;2749;53.576;9.822;2023-07-31T08:37:55;2.47;;;2.27;;
5452;SDS011;2749;53.576;9.822;2023-07-31T08:40:21;4.00;;;1.70;;
5452;SDS011;2749;53.576;9.822;2023-07-31T08:42:48;1.50;;;1.40;;
5452;SDS011;2749;53.576;9.822;2023-07-31T08:45:14;1.90;;;1.67;;
5452;SDS011;2749;53.576;9.822;2023-07-31T08:47:50;2.07;;;1.80;;
5452;SDS011;2749;53.576;9.822;2023-07-31T08:50:17;1.90;;;1.63;;
5452;SDS011;2749;53.576;9.822;2023-07-31T08:52:43;2.60;;;1.17;;
5452;SDS011;2749;53.576;9.822;2023-07-31T08:55:09;1.27;;;1.17;;
5452;SDS011;2749;53.576;9.822;2023-07-31T08:57:36;2.10;;;1.20;;
5452;SDS011;2749;53.576;9.822;2023-07-31T09:00:03;2.30;;;2.00;;
5452;SDS011;2749;53.576;9.822;2023-07-31T09:05:06;1.63;;;1.37;;
5452;SDS011;2749;53.576;9.822;2023-07-31T09:07:33;1.30;;;1.03;;
5452;SDS011;2749;53.576;9.822;2023-07-31T09:10:00;1.90;;;1.10;;
5452;SDS011;2749;53.576;9.822;2023-07-31T09:12:25;1.37;;;1.17;;
5452;SDS011;2749;53.576;9.822;2023-07-31T09:14:51;2.37;;;1.67;;
5452;SDS011;2749;53.576;9.822;2023-07-31T09:17:28;1.43;;;1.33;;
5452;SDS011;2749;53.576;9.822;2023-07-31T09:19:54;1.40;;;1.23;;
5452;SDS011;2749;53.576;9.822;2023-07-31T09:22:34;1.50;;;1.40;;
5452;SDS011;2749;53.576;9.822;2023-07-31T09:25:16;1.93;;;1.50;;
5452;SDS011;2749;53.576;9.822;2023-07-31T09:27:56;2.50;;;1.90;;
5452;SDS011;2749;53.576;9.822;2023-07-31T09:30:22;2.00;;;1.80;;
5452;SDS011;2749;53.576;9.822;2023-07-31T09:32:49;2.40;;;1.40;;
5452;SDS011;2749;53.576;9.822;2023-07-31T09:37:41;2.10;;;1.23;;
5452;SDS011;2749;53.576;9.822;2023-07-31T09:40:07;1.30;;;1.20;;
5452;SDS011;2749;53.576;9.822;2023-07-31T09:42:33;1.87;;;1.30;;
5452;SDS011;2749;53.576;9.822;2023-07-31T09:45:09;1.93;;;1.00;;
5452;SDS011;2749;53.576;9.822;2023-07-31T09:47:35;1.33;;;1.20;;
5452;SDS011;2749;53.576;9.822;2023-07-31T09:50:01;2.07;;;1.10;;
5452;SDS011;2749;53.576;9.822;2023-07-31T09:52:27;1.40;;;1.30;;
5452;SDS011;2749;53.576;9.822;2023-07-31T09:54:53;1.40;;;1.20;;
5452;SDS011;2749;53.576;9.822;2023-07-31T09:57:19;1.03;;;0.77;;
5452;SDS011;2749;53.576;9.822;2023-07-31T09:59:47;2.00;;;1.10;;
5452;SDS011;2749;53.576;9.822;2023-07-31T10:02:15;1.40;;;1.10;;
5452;SDS011;2749;53.576;9.822;2023-07-31T10:04:42;1.40;;;0.97;;
5452;SDS011;2749;53.576;9.822;2023-07-31T10:07:09;1.83;;;1.03;;
5452;SDS011;2749;53.576;9.822;2023-07-31T10:09:35;1.40;;;1.27;;
5452;SDS011;2749;53.576;9.822;2023-07-31T10:12:02;1.03;;;0.90;;
5452;SDS011;2749;53.576;9.822;2023-07-31T10:14:31;1.80;;;1.60;;
5452;SDS011;2749;53.576;9.822;2023-07-31T10:16:58;1.30;;;1.07;;
5452;SDS011;2749;53.576;9.822;2023-07-31T10:19:24;1.70;;;1.60;;
5452;SDS011;2749;53.576;9.822;2023-07-31T10:21:52;1.40;;;1.30;;
5452;SDS011;2749;53.576;9.822;2023-07-31T10:24:18;1.23;;;1.13;;
5452;SDS011;2749;53.576;9.822;2023-07-31T10:26:45;3.80;;;1.23;;
5452;SDS011;2749;53.576;9.822;2023-07-31T10:29:11;1.40;;;1.30;;
5452;SDS011;2749;53.576;9.822;2023-07-31T10:31:37;1.87;;;1.67;;
5452;SDS011;2749;53.576;9.822;2023-07-31T10:34:03;1.30;;;1.20;;
5452;SDS011;2749;53.576;9.822;2023-07-31T10:36:29;1.00;;;0.90;;
5452;SDS011;2749;53.576;9.822;2023-07-31T10:38:55;1.37;;;1.17;;
5452;SDS011;2749;53.576;9.822;2023-07-31T10:41:31;1.27;;;1.00;;
5452;SDS011;2749;53.576;9.822;2023-07-31T10:44:00;1.50;;;1.00;;
5452;SDS011;2749;53.576;9.822;2023-07-31T10:46:29;0.90;;;0.70;;
5452;SDS011;2749;53.576;9.822;2023-07-31T10:48:59;1.10;;;0.80;;
5452;SDS011;2749;53.576;9.822;2023-07-31T10:51:32;0.90;;;0.70;;
5452;SDS011;2749;53.576;9.822;2023-07-31T10:54:15;1.00;;;0.90;;
5452;SDS011;2749;53.576;9.822;2023-07-31T10:56:46;1.60;;;0.80;;
5452;SDS011;2749;53.576;9.822;2023-07-31T10:59:13;1.47;;;0.70;;
5452;SDS011;2749;53.576;9.822;2023-07-31T11:01:54;0.90;;;0.80;;
5452;SDS011;2749;53.576;9.822;2023-07-31T11:04:27;1.77;;;0.80;;
5452;SDS011;2749;53.576;9.822;2023-07-31T11:06:57;0.87;;;0.80;;
5452;SDS011;2749;53.576;9.822;2023-07-31T11:09:30;1.10;;;0.80;;
5452;SDS011;2749;53.576;9.822;2023-07-31T11:11:57;0.80;;;0.70;;
5452;SDS011;2749;53.576;9.822;2023-07-31T11:14:23;0.90;;;0.80;;
5452;SDS011;2749;53.576;9.822;2023-07-31T11:16:49;0.73;;;0.73;;
5452;SDS011;2749;53.576;9.822;2023-07-31T11:19:25;1.00;;;0.73;;
5452;SDS011;2749;53.576;9.822;2023-07-31T11:21:52;0.77;;;0.70;;
5452;SDS011;2749;53.576;9.822;2023-07-31T11:24:18;1.20;;;0.80;;
5452;SDS011;2749;53.576;9.822;2023-07-31T11:26:51;0.70;;;0.63;;
5452;SDS011;2749;53.576;9.822;2023-07-31T11:29:17;1.27;;;0.80;;
5452;SDS011;2749;53.576;9.822;2023-07-31T11:31:44;0.80;;;0.63;;
5452;SDS011;2749;53.576;9.822;2023-07-31T11:34:10;0.70;;;0.70;;
5452;SDS011;2749;53.576;9.822;2023-07-31T11:36:39;0.70;;;0.70;;
5452;SDS011;2749;53.576;9.822;2023-07-31T11:39:06;1.10;;;0.97;;
5452;SDS011;2749;53.576;9.822;2023-07-31T11:41:32;0.90;;;0.70;;
5452;SDS011;2749;53.576;9.822;2023-07-31T11:44:01;0.97;;;0.80;;
5452;SDS011;2749;53.576;9.822;2023-07-31T11:46:28;0.87;;;0.77;;
5452;SDS011;2749;53.576;9.822;2023-07-31T11:48:59;1.87;;;1.50;;
5452;SDS011;2749;53.576;9.822;2023-07-31T11:51:25;0.90;;;0.70;;
5452;SDS011;2749;53.576;9.822;2023-07-31T11:53:52;1.50;;;0.70;;
5452;SDS011;2749;53.576;9.822;2023-07-31T11:56:19;1.43;;;0.50;;
5452;SDS011;2749;53.576;9.822;2023-07-31T11:58:46;2.83;;;1.57;;
5452;SDS011;2749;53.576;9.822;2023-07-31T12:01:13;0.70;;;0.60;;
5452;SDS011;2749;53.576;9.822;2023-07-31T12:03:39;0.70;;;0.60;;
5452;SDS011;2749;53.576;9.822;2023-07-31T12:06:07;1.13;;;0.80;;
5452;SDS011;2749;53.576;9.822;2023-07-31T12:08:33;0.70;;;0.60;;
5452;SDS011;2749;53.576;9.822;2023-07-31T12:11:03;1.10;;;0.70;;
5452;SDS011;2749;53.576;9.822;2023-07-31T12:13:30;1.00;;;0.70;;
5452;SDS011;2749;53.576;9.822;2023-07-31T12:15:57;1.10;;;0.70;;
5452;SDS011;2749;53.576;9.822;2023-07-31T12:18:24;1.00;;;0.80;;
5452;SDS011;2749;53.576;9.822;2023-07-31T12:21:00;1.10;;;1.00;;
5452;SDS011;2749;53.576;9.822;2023-07-31T12:23:27;0.93;;;0.90;;
5452;SDS011;2749;53.576;9.822;2023-07-31T12:26:03;1.00;;;0.80;;
5452;SDS011;2749;53.576;9.822;2023-07-31T12:28:29;0.90;;;0.80;;
5452;SDS011;2749;53.576;9.822;2023-07-31T12:30:59;2.13;;;0.90;;
5452;SDS011;2749;53.576;9.822;2023-07-31T12:33:30;1.43;;;0.80;;
5452;SDS011;2749;53.576;9.822;2023-07-31T12:35:56;1.20;;;0.60;;
5452;SDS011;2749;53.576;9.822;2023-07-31T12:38:22;0.90;;;0.73;;
5452;SDS011;2749;53.576;9.822;2023-07-31T12:40:48;3.47;;;0.80;;
5452;SDS011;2749;53.576;9.822;2023-07-31T12:43:14;1.10;;;1.00;;
5452;SDS011;2749;53.576;9.822;2023-07-31T12:45:40;1.20;;;0.80;;
5452;SDS011;2749;53.576;9.822;2023-07-31T12:48:06;0.70;;;0.60;;
5452;SDS011;2749;53.576;9.822;2023-07-31T12:50:32;0.80;;;0.70;;
5452;SDS011;2749;53.576;9.822;2023-07-31T12:52:58;3.27;;;0.80;;
5452;SDS011;2749;53.576;9.822;2023-07-31T12:55:24;0.83;;;0.70;;
5452;SDS011;2749;53.576;9.822;2023-07-31T12:57:50;1.13;;;1.00;;
5452;SDS011;2749;53.576;9.822;2023-07-31T13:00:16;0.80;;;0.70;;
5452;SDS011;2749;53.576;9.822;2023-07-31T13:02:42;1.00;;;0.70;;
5452;SDS011;2749;53.576;9.822;2023-07-31T13:05:08;1.43;;;0.70;;
5452;SDS011;2749;53.576;9.822;2023-07-31T13:07:34;0.90;;;0.63;;
5452;SDS011;2749;53.576;9.822;2023-07-31T13:10:00;1.00;;;0.80;;
5452;SDS011;2749;53.576;9.822;2023-07-31T13:12:26;0.80;;;0.80;;
5452;SDS011;2749;53.576;9.822;2023-07-31T13:14:52;0.83;;;0.70;;
5452;SDS011;2749;53.576;9.822;2023-07-31T13:17:18;1.37;;;0.80;;
5452;SDS011;2749;53.576;9.822;2023-07-31T13:19:44;1.00;;;0.90;;
5452;SDS011;2749;53.576;9.822;2023-07-31T13:22:10;2.13;;;1.07;;
5452;SDS011;2749;53.576;9.822;2023-07-31T13:24:36;1.13;;;1.00;;
5452;SDS011;2749;53.576;9.822;2023-07-31T13:27:02;0.80;;;0.70;;
5452;SDS011;2749;53.576;9.822;2023-07-31T13:29:28;1.27;;;0.93;;
5452;SDS011;2749;53.576;9.822;2023-07-31T13:31:55;1.13;;;0.93;;
5452;SDS011;2749;53.576;9.822;2023-07-31T13:34:21;1.10;;;0.80;;
5452;SDS011;2749;53.576;9.822;2023-07-31T13:36:47;0.77;;;0.63;;
5452;SDS011;2749;53.576;9.822;2023-07-31T13:39:12;1.00;;;0.77;;
5452;SDS011;2749;53.576;9.822;2023-07-31T13:41:38;1.10;;;0.90;;
5452;SDS011;2749;53.576;9.822;2023-07-31T13:44:04;0.77;;;0.60;;
5452;SDS011;2749;53.576;9.822;2023-07-31T13:46:30;1.20;;;0.93;;
5452;SDS011;2749;53.576;9.822;2023-07-31T13:48:57;0.80;;;0.80;;
5452;SDS011;2749;53.576;9.822;2023-07-31T13:51:24;0.97;;;0.80;;
5452;SDS011;2749;53.576;9.822;2023-07-31T13:53:50;1.00;;;0.90;;
5452;SDS011;2749;53.576;9.822;2023-07-31T13:56:16;1.43;;;1.10;;
5452;SDS011;2749;53.576;9.822;2023-07-31T13:58:42;1.17;;;1.07;;
5452;SDS011;2749;53.576;9.822;2023-07-31T14:01:08;1.50;;;1.23;;
5452;SDS011;2749;53.576;9.822;2023-07-31T14:03:34;1.60;;;1.33;;
5452;SDS011;2749;53.576;9.822;2023-07-31T14:06:00;0.90;;;0.80;;
5452;SDS011;2749;53.576;9.822;2023-07-31T14:08:26;1.83;;;1.17;;
5452;SDS011;2749;53.576;9.822;2023-07-31T14:10:52;1.33;;;1.00;;
5452;SDS011;2749;53.576;9.822;2023-07-31T14:13:18;1.60;;;1.03;;
5452;SDS011;2749;53.576;9.822;2023-07-31T14:15:44;2.00;;;1.50;;
5452;SDS011;2749;53.576;9.822;2023-07-31T14:18:09;1.80;;;1.40;;
5452;SDS011;2749;53.576;9.822;2023-07-31T14:20:35;2.70;;;1.50;;
5452;SDS011;2749;53.576;9.822;2023-07-31T14:23:02;1.07;;;0.93;;
5452;SDS011;2749;53.576;9.822;2023-07-31T14:25:28;3.43;;;1.53;;
5452;SDS011;2749;53.576;9.822;2023-07-31T14:27:54;3.37;;;0.90;;
5452;SDS011;2749;53.576;9.822;2023-07-31T14:30:20;2.60;;;0.70;;
5452;SDS011;2749;53.576;9.822;2023-07-31T14:32:46;0.80;;;0.70;;
5452;SDS011;2749;53.576;9.822;2023-07-31T14:35:12;1.57;;;0.73;;
5452;SDS011;2749;53.576;9.822;2023-07-31T14:37:41;1.10;;;0.60;;
5452;SDS011;2749;53.576;9.822;2023-07-31T14:40:07;0.90;;;0.80;;
5452;SDS011;2749;53.576;9.822;2023-07-31T14:42:34;1.57;;;1.00;;
5452;SDS011;2749;53.576;9.822;2023-07-31T14:45:00;0.80;;;0.70;;
5452;SDS011;2749;53.576;9.822;2023-07-31T14:47:26;1.00;;;0.70;;
5452;SDS011;2749;53.576;9.822;2023-07-31T14:49:52;1.47;;;0.83;;
5452;SDS011;2749;53.576;9.822;2023-07-31T14:52:18;1.00;;;0.90;;
5452;SDS011;2749;53.576;9.822;2023-07-31T14:54:44;0.73;;;0.70;;
5452;SDS011;2749;53.576;9.822;2023-07-31T14:57:10;0.80;;;0.80;;
5452;SDS011;2749;53.576;9.822;2023-07-31T14:59:36;1.13;;;0.73;;
5452;SDS011;2749;53.576;9.822;2023-07-31T15:02:02;0.90;;;0.60;;
5452;SDS011;2749;53.576;9.822;2023-07-31T15:04:28;0.93;;;0.80;;
5452;SDS011;2749;53.576;9.822;2023-07-31T15:06:54;0.80;;;0.70;;
5452;SDS011;2749;53.576;9.822;2023-07-31T15:09:20;1.03;;;0.93;;
5452;SDS011;2749;53.576;9.822;2023-07-31T15:11:46;1.80;;;1.20;;
5452;SDS011;2749;53.576;9.822;2023-07-31T15:14:12;1.20;;;1.03;;
5452;SDS011;2749;53.576;9.822;2023-07-31T15:16:38;1.87;;;1.60;;
5452;SDS011;2749;53.576;9.822;2023-07-31T15:19:04;1.87;;;1.77;;
5452;SDS011;2749;53.576;9.822;2023-07-31T15:21:30;1.70;;;1.60;;
5452;SDS011;2749;53.576;9.822;2023-07-31T15:23:56;2.00;;;1.80;;